Walla Walla, Washington
Current Conditions -  °F | °C
As of 9:53 PM on Saturday 25 Oct 2014 (Local Time) from KALW Reporting Station
Broken Clouds Broken Clouds  
Wind Chill: 63°   Ceiling: 7500
Heat Index: 63°   Visibility: 10mi
Dew Point: 43°   Wind: 25mph
Humidity: 48%   Direction: 210°SSW
Pressure: 29.69"   Gusts: 39mph
Location:  46.07°N, 118.34°W
Report Text: KALW 260453Z AUTO 21022G34KT 10SM BKN075 BKN090 17/06 A2969 RMK AO2 PK WND 21034/0447 SLP053 T01720061 $
Loading
Personal Weather Stations






























Interactive Weather Map New forecast layout! Learn more

10-Day Weather Forecast

Advertisements
Track Severe Weather on mobile